sensor_id;sensor_type;location;lat;lon;timestamp;P1;durP1;ratioP1;P2;durP2;ratioP2
50745;SDS011;36711;51.972;21.204;2022-07-24T00:00:07;9.30;;;6.50;;
50745;SDS011;36711;51.972;21.204;2022-07-24T00:02:56;10.30;;;7.10;;
50745;SDS011;36711;51.972;21.204;2022-07-24T00:05:23;9.80;;;6.90;;
50745;SDS011;36711;51.972;21.204;2022-07-24T00:07:51;10.20;;;6.60;;
50745;SDS011;36711;51.972;21.204;2022-07-24T00:10:19;7.50;;;6.00;;
50745;SDS011;36711;51.972;21.204;2022-07-24T00:12:47;10.70;;;6.00;;
50745;SDS011;36711;51.972;21.204;2022-07-24T00:15:15;9.10;;;7.00;;
50745;SDS011;36711;51.972;21.204;2022-07-24T00:17:42;9.90;;;7.30;;
50745;SDS011;36711;51.972;21.204;2022-07-24T00:20:10;13.00;;;7.30;;
50745;SDS011;36711;51.972;21.204;2022-07-24T00:22:38;9.30;;;7.40;;
50745;SDS011;36711;51.972;21.204;2022-07-24T00:25:06;9.70;;;6.60;;
50745;SDS011;36711;51.972;21.204;2022-07-24T00:27:34;12.30;;;7.60;;
50745;SDS011;36711;51.972;21.204;2022-07-24T00:30:02;11.30;;;7.80;;
50745;SDS011;36711;51.972;21.204;2022-07-24T00:32:30;10.80;;;8.60;;
50745;SDS011;36711;51.972;21.204;2022-07-24T00:34:58;9.30;;;7.90;;
50745;SDS011;36711;51.972;21.204;2022-07-24T00:37:26;11.80;;;8.20;;
50745;SDS011;36711;51.972;21.204;2022-07-24T00:39:54;11.50;;;7.50;;
50745;SDS011;36711;51.972;21.204;2022-07-24T00:42:22;11.10;;;7.60;;
50745;SDS011;36711;51.972;21.204;2022-07-24T00:44:50;15.20;;;8.50;;
50745;SDS011;36711;51.972;21.204;2022-07-24T00:47:17;12.30;;;8.60;;
50745;SDS011;36711;51.972;21.204;2022-07-24T00:49:45;12.10;;;8.40;;
50745;SDS011;36711;51.972;21.204;2022-07-24T00:52:13;10.90;;;7.90;;
50745;SDS011;36711;51.972;21.204;2022-07-24T00:54:41;13.90;;;8.90;;
50745;SDS011;36711;51.972;21.204;2022-07-24T00:57:09;11.10;;;9.10;;
50745;SDS011;36711;51.972;21.204;2022-07-24T00:59:38;14.50;;;9.70;;
50745;SDS011;36711;51.972;21.204;2022-07-24T01:02:06;13.60;;;9.10;;
50745;SDS011;36711;51.972;21.204;2022-07-24T01:04:33;12.90;;;8.60;;
50745;SDS011;36711;51.972;21.204;2022-07-24T01:07:01;13.40;;;9.80;;
50745;SDS011;36711;51.972;21.204;2022-07-24T01:09:30;14.10;;;9.70;;
50745;SDS011;36711;51.972;21.204;2022-07-24T01:11:58;12.50;;;10.00;;
50745;SDS011;36711;51.972;21.204;2022-07-24T01:14:26;15.90;;;9.40;;
50745;SDS011;36711;51.972;21.204;2022-07-24T01:16:54;12.80;;;8.80;;
50745;SDS011;36711;51.972;21.204;2022-07-24T01:19:22;15.70;;;9.80;;
50745;SDS011;36711;51.972;21.204;2022-07-24T01:21:51;16.10;;;9.70;;
50745;SDS011;36711;51.972;21.204;2022-07-24T01:24:20;16.00;;;10.40;;
50745;SDS011;36711;51.972;21.204;2022-07-24T01:26:48;14.00;;;9.40;;
50745;SDS011;36711;51.972;21.204;2022-07-24T01:29:16;11.50;;;8.50;;
50745;SDS011;36711;51.972;21.204;2022-07-24T01:31:44;14.70;;;9.90;;
50745;SDS011;36711;51.972;21.204;2022-07-24T01:34:12;14.20;;;9.40;;
50745;SDS011;36711;51.972;21.204;2022-07-24T01:36:40;12.90;;;9.60;;
50745;SDS011;36711;51.972;21.204;2022-07-24T01:39:09;14.00;;;9.40;;
50745;SDS011;36711;51.972;21.204;2022-07-24T01:41:37;11.10;;;9.30;;
50745;SDS011;36711;51.972;21.204;2022-07-24T01:44:05;14.10;;;9.30;;
50745;SDS011;36711;51.972;21.204;2022-07-24T01:46:32;14.90;;;9.60;;
50745;SDS011;36711;51.972;21.204;2022-07-24T01:49:00;12.50;;;9.70;;
50745;SDS011;36711;51.972;21.204;2022-07-24T01:51:29;17.00;;;9.20;;
50745;SDS011;36711;51.972;21.204;2022-07-24T01:53:57;16.30;;;8.40;;
50745;SDS011;36711;51.972;21.204;2022-07-24T01:56:24;11.70;;;7.60;;
50745;SDS011;36711;51.972;21.204;2022-07-24T01:58:54;12.10;;;8.70;;
50745;SDS011;36711;51.972;21.204;2022-07-24T02:01:22;14.00;;;8.80;;
50745;SDS011;36711;51.972;21.204;2022-07-24T02:03:50;18.50;;;8.70;;
50745;SDS011;36711;51.972;21.204;2022-07-24T02:06:18;13.60;;;8.70;;
50745;SDS011;36711;51.972;21.204;2022-07-24T02:08:45;14.30;;;7.80;;
50745;SDS011;36711;51.972;21.204;2022-07-24T02:11:13;13.10;;;8.30;;
50745;SDS011;36711;51.972;21.204;2022-07-24T02:13:41;12.60;;;7.90;;
50745;SDS011;36711;51.972;21.204;2022-07-24T02:16:09;13.60;;;8.30;;
50745;SDS011;36711;51.972;21.204;2022-07-24T02:18:37;10.40;;;7.40;;
50745;SDS011;36711;51.972;21.204;2022-07-24T02:21:05;7.00;;;5.40;;
50745;SDS011;36711;51.972;21.204;2022-07-24T02:23:33;8.80;;;5.60;;
50745;SDS011;36711;51.972;21.204;2022-07-24T02:26:01;8.90;;;5.40;;
50745;SDS011;36711;51.972;21.204;2022-07-24T02:28:29;9.30;;;4.80;;
50745;SDS011;36711;51.972;21.204;2022-07-24T02:30:57;5.10;;;3.90;;
50745;SDS011;36711;51.972;21.204;2022-07-24T02:33:24;6.20;;;3.20;;
50745;SDS011;36711;51.972;21.204;2022-07-24T02:35:52;8.80;;;3.00;;
50745;SDS011;36711;51.972;21.204;2022-07-24T02:38:20;6.90;;;3.10;;
50745;SDS011;36711;51.972;21.204;2022-07-24T02:40:48;4.10;;;3.00;;
50745;SDS011;36711;51.972;21.204;2022-07-24T02:43:16;6.90;;;3.30;;
50745;SDS011;36711;51.972;21.204;2022-07-24T02:45:44;7.60;;;3.10;;
50745;SDS011;36711;51.972;21.204;2022-07-24T02:48:17;7.50;;;2.40;;
50745;SDS011;36711;51.972;21.204;2022-07-24T02:50:45;8.40;;;3.00;;
50745;SDS011;36711;51.972;21.204;2022-07-24T02:53:13;3.00;;;2.10;;
50745;SDS011;36711;51.972;21.204;2022-07-24T02:55:41;2.50;;;2.10;;
50745;SDS011;36711;51.972;21.204;2022-07-24T02:58:08;4.10;;;2.70;;
50745;SDS011;36711;51.972;21.204;2022-07-24T03:00:36;5.20;;;2.00;;
50745;SDS011;36711;51.972;21.204;2022-07-24T03:03:04;2.40;;;2.20;;
50745;SDS011;36711;51.972;21.204;2022-07-24T03:05:32;2.70;;;1.70;;
50745;SDS011;36711;51.972;21.204;2022-07-24T03:08:00;3.90;;;1.80;;
50745;SDS011;36711;51.972;21.204;2022-07-24T03:10:27;3.90;;;1.60;;
50745;SDS011;36711;51.972;21.204;2022-07-24T03:12:55;2.00;;;1.80;;
50745;SDS011;36711;51.972;21.204;2022-07-24T03:15:23;3.30;;;1.90;;
50745;SDS011;36711;51.972;21.204;2022-07-24T03:17:51;4.20;;;1.60;;
50745;SDS011;36711;51.972;21.204;2022-07-24T03:20:24;6.10;;;1.70;;
50745;SDS011;36711;51.972;21.204;2022-07-24T03:22:53;1.50;;;1.40;;
50745;SDS011;36711;51.972;21.204;2022-07-24T03:25:22;2.50;;;1.40;;
50745;SDS011;36711;51.972;21.204;2022-07-24T03:27:50;3.10;;;1.40;;
50745;SDS011;36711;51.972;21.204;2022-07-24T03:30:18;1.60;;;1.50;;
50745;SDS011;36711;51.972;21.204;2022-07-24T03:32:46;1.70;;;1.10;;
50745;SDS011;36711;51.972;21.204;2022-07-24T03:35:14;6.60;;;1.80;;
50745;SDS011;36711;51.972;21.204;2022-07-24T03:37:42;4.40;;;1.40;;
50745;SDS011;36711;51.972;21.204;2022-07-24T03:40:10;1.70;;;1.30;;
50745;SDS011;36711;51.972;21.204;2022-07-24T03:42:38;2.00;;;1.30;;
50745;SDS011;36711;51.972;21.204;2022-07-24T03:45:06;3.20;;;1.30;;
50745;SDS011;36711;51.972;21.204;2022-07-24T03:47:34;3.50;;;1.10;;
50745;SDS011;36711;51.972;21.204;2022-07-24T03:50:02;2.40;;;1.50;;
50745;SDS011;36711;51.972;21.204;2022-07-24T03:52:30;2.40;;;1.20;;
50745;SDS011;36711;51.972;21.204;2022-07-24T03:54:58;4.00;;;1.30;;
50745;SDS011;36711;51.972;21.204;2022-07-24T03:57:25;2.60;;;1.30;;
50745;SDS011;36711;51.972;21.204;2022-07-24T03:59:53;1.30;;;1.20;;
50745;SDS011;36711;51.972;21.204;2022-07-24T04:02:21;2.90;;;1.50;;
50745;SDS011;36711;51.972;21.204;2022-07-24T04:04:49;3.90;;;1.40;;
50745;SDS011;36711;51.972;21.204;2022-07-24T04:07:17;2.50;;;1.30;;
50745;SDS011;36711;51.972;21.204;2022-07-24T04:09:44;2.10;;;1.30;;
50745;SDS011;36711;51.972;21.204;2022-07-24T04:12:12;1.80;;;1.10;;
50745;SDS011;36711;51.972;21.204;2022-07-24T04:14:40;1.60;;;1.40;;
50745;SDS011;36711;51.972;21.204;2022-07-24T04:17:08;4.90;;;1.20;;
50745;SDS011;36711;51.972;21.204;2022-07-24T04:19:36;4.00;;;1.00;;
50745;SDS011;36711;51.972;21.204;2022-07-24T04:22:04;2.70;;;1.20;;
50745;SDS011;36711;51.972;21.204;2022-07-24T04:24:32;4.60;;;1.40;;
50745;SDS011;36711;51.972;21.204;2022-07-24T04:27:00;2.20;;;0.90;;
50745;SDS011;36711;51.972;21.204;2022-07-24T04:29:28;4.60;;;1.40;;
50745;SDS011;36711;51.972;21.204;2022-07-24T04:31:56;3.20;;;1.10;;
50745;SDS011;36711;51.972;21.204;2022-07-24T04:34:24;5.90;;;1.30;;
50745;SDS011;36711;51.972;21.204;2022-07-24T04:36:52;2.70;;;1.00;;
50745;SDS011;36711;51.972;21.204;2022-07-24T04:39:19;4.30;;;1.00;;
50745;SDS011;36711;51.972;21.204;2022-07-24T04:41:48;1.00;;;0.80;;
50745;SDS011;36711;51.972;21.204;2022-07-24T04:44:16;2.40;;;1.10;;
50745;SDS011;36711;51.972;21.204;2022-07-24T04:46:44;1.90;;;1.00;;
50745;SDS011;36711;51.972;21.204;2022-07-24T04:49:12;1.20;;;1.00;;
50745;SDS011;36711;51.972;21.204;2022-07-24T04:51:40;1.80;;;1.10;;
50745;SDS011;36711;51.972;21.204;2022-07-24T04:54:07;2.10;;;1.00;;
50745;SDS011;36711;51.972;21.204;2022-07-24T04:56:35;3.70;;;1.10;;
50745;SDS011;36711;51.972;21.204;2022-07-24T04:59:03;3.00;;;1.00;;
50745;SDS011;36711;51.972;21.204;2022-07-24T05:01:31;2.80;;;1.30;;
50745;SDS011;36711;51.972;21.204;2022-07-24T05:03:59;1.80;;;1.30;;
50745;SDS011;36711;51.972;21.204;2022-07-24T05:06:27;4.90;;;1.50;;
50745;SDS011;36711;51.972;21.204;2022-07-24T05:08:55;1.20;;;1.10;;
50745;SDS011;36711;51.972;21.204;2022-07-24T05:11:23;2.30;;;1.20;;
50745;SDS011;36711;51.972;21.204;2022-07-24T05:13:51;1.30;;;1.20;;
50745;SDS011;36711;51.972;21.204;2022-07-24T05:16:18;2.50;;;0.90;;
50745;SDS011;36711;51.972;21.204;2022-07-24T05:18:46;1.90;;;0.90;;
50745;SDS011;36711;51.972;21.204;2022-07-24T05:21:14;4.00;;;1.20;;
50745;SDS011;36711;51.972;21.204;2022-07-24T05:23:43;4.80;;;1.30;;
50745;SDS011;36711;51.972;21.204;2022-07-24T05:26:11;7.70;;;1.30;;
50745;SDS011;36711;51.972;21.204;2022-07-24T05:28:39;2.50;;;1.00;;
50745;SDS011;36711;51.972;21.204;2022-07-24T05:31:07;2.20;;;1.00;;
50745;SDS011;36711;51.972;21.204;2022-07-24T05:33:35;3.30;;;1.20;;
50745;SDS011;36711;51.972;21.204;2022-07-24T05:36:03;3.20;;;1.10;;
50745;SDS011;36711;51.972;21.204;2022-07-24T05:38:32;2.10;;;1.20;;
50745;SDS011;36711;51.972;21.204;2022-07-24T05:41:00;3.80;;;1.00;;
50745;SDS011;36711;51.972;21.204;2022-07-24T05:43:29;2.40;;;0.70;;
50745;SDS011;36711;51.972;21.204;2022-07-24T05:45:58;3.40;;;0.90;;
50745;SDS011;36711;51.972;21.204;2022-07-24T05:48:25;2.00;;;1.00;;
50745;SDS011;36711;51.972;21.204;2022-07-24T05:50:53;5.50;;;0.90;;
50745;SDS011;36711;51.972;21.204;2022-07-24T05:53:22;1.60;;;1.00;;
50745;SDS011;36711;51.972;21.204;2022-07-24T05:55:50;4.70;;;0.70;;
50745;SDS011;36711;51.972;21.204;2022-07-24T05:58:18;1.50;;;0.70;;
50745;SDS011;36711;51.972;21.204;2022-07-24T06:00:46;2.30;;;0.90;;
50745;SDS011;36711;51.972;21.204;2022-07-24T06:03:14;1.60;;;0.90;;
50745;SDS011;36711;51.972;21.204;2022-07-24T06:05:42;1.60;;;0.90;;
50745;SDS011;36711;51.972;21.204;2022-07-24T06:08:09;2.50;;;1.00;;
50745;SDS011;36711;51.972;21.204;2022-07-24T06:10:37;2.60;;;1.10;;
50745;SDS011;36711;51.972;21.204;2022-07-24T06:13:05;3.70;;;0.90;;
50745;SDS011;36711;51.972;21.204;2022-07-24T06:15:35;3.00;;;0.80;;
50745;SDS011;36711;51.972;21.204;2022-07-24T06:18:07;2.10;;;0.90;;
50745;SDS011;36711;51.972;21.204;2022-07-24T06:20:35;3.50;;;1.00;;
50745;SDS011;36711;51.972;21.204;2022-07-24T06:23:03;2.90;;;0.80;;
50745;SDS011;36711;51.972;21.204;2022-07-24T06:25:30;1.00;;;0.90;;
50745;SDS011;36711;51.972;21.204;2022-07-24T06:27:58;3.00;;;0.90;;
50745;SDS011;36711;51.972;21.204;2022-07-24T06:30:26;2.20;;;0.80;;
50745;SDS011;36711;51.972;21.204;2022-07-24T06:32:56;2.40;;;0.80;;
50745;SDS011;36711;51.972;21.204;2022-07-24T06:35:25;1.00;;;0.80;;
50745;SDS011;36711;51.972;21.204;2022-07-24T06:37:55;3.30;;;0.70;;
50745;SDS011;36711;51.972;21.204;2022-07-24T06:40:23;2.20;;;0.90;;
50745;SDS011;36711;51.972;21.204;2022-07-24T06:42:51;3.20;;;0.90;;
50745;SDS011;36711;51.972;21.204;2022-07-24T06:45:19;2.20;;;0.90;;
50745;SDS011;36711;51.972;21.204;2022-07-24T06:47:47;3.40;;;0.90;;
50745;SDS011;36711;51.972;21.204;2022-07-24T06:50:15;0.70;;;0.70;;
50745;SDS011;36711;51.972;21.204;2022-07-24T06:52:43;1.40;;;0.70;;
50745;SDS011;36711;51.972;21.204;2022-07-24T06:55:11;2.40;;;0.70;;
50745;SDS011;36711;51.972;21.204;2022-07-24T06:57:39;1.80;;;0.70;;
50745;SDS011;36711;51.972;21.204;2022-07-24T07:00:07;3.30;;;0.70;;
50745;SDS011;36711;51.972;21.204;2022-07-24T07:02:37;4.20;;;0.80;;
50745;SDS011;36711;51.972;21.204;2022-07-24T07:05:06;2.40;;;0.70;;
50745;SDS011;36711;51.972;21.204;2022-07-24T07:07:35;2.30;;;0.90;;
50745;SDS011;36711;51.972;21.204;2022-07-24T07:10:03;4.50;;;0.70;;
50745;SDS011;36711;51.972;21.204;2022-07-24T07:12:32;4.40;;;0.70;;
50745;SDS011;36711;51.972;21.204;2022-07-24T07:15:08;3.30;;;0.90;;
50745;SDS011;36711;51.972;21.204;2022-07-24T07:17:38;3.40;;;0.60;;
50745;SDS011;36711;51.972;21.204;2022-07-24T07:20:06;2.70;;;0.60;;
50745;SDS011;36711;51.972;21.204;2022-07-24T07:22:35;4.60;;;0.60;;
50745;SDS011;36711;51.972;21.204;2022-07-24T07:25:03;0.70;;;0.70;;
50745;SDS011;36711;51.972;21.204;2022-07-24T07:27:32;5.10;;;0.80;;
50745;SDS011;36711;51.972;21.204;2022-07-24T07:30:01;2.90;;;0.80;;
50745;SDS011;36711;51.972;21.204;2022-07-24T07:32:30;2.40;;;0.80;;
50745;SDS011;36711;51.972;21.204;2022-07-24T07:34:58;1.90;;;0.70;;
50745;SDS011;36711;51.972;21.204;2022-07-24T07:37:26;5.00;;;0.70;;
50745;SDS011;36711;51.972;21.204;2022-07-24T07:39:53;1.70;;;0.90;;
50745;SDS011;36711;51.972;21.204;2022-07-24T07:42:25;2.10;;;0.80;;
50745;SDS011;36711;51.972;21.204;2022-07-24T07:44:53;3.30;;;1.00;;
50745;SDS011;36711;51.972;21.204;2022-07-24T07:47:20;3.00;;;0.70;;
50745;SDS011;36711;51.972;21.204;2022-07-24T07:49:48;1.00;;;0.70;;
50745;SDS011;36711;51.972;21.204;2022-07-24T07:52:16;2.30;;;0.70;;
50745;SDS011;36711;51.972;21.204;2022-07-24T07:54:44;1.60;;;1.00;;
50745;SDS011;36711;51.972;21.204;2022-07-24T07:57:12;1.90;;;0.90;;
50745;SDS011;36711;51.972;21.204;2022-07-24T07:59:40;2.30;;;0.50;;
50745;SDS011;36711;51.972;21.204;2022-07-24T08:02:08;6.00;;;0.60;;
50745;SDS011;36711;51.972;21.204;2022-07-24T08:04:36;2.70;;;0.70;;
50745;SDS011;36711;51.972;21.204;2022-07-24T08:07:03;1.10;;;0.70;;
50745;SDS011;36711;51.972;21.204;2022-07-24T08:09:33;2.70;;;0.60;;
50745;SDS011;36711;51.972;21.204;2022-07-24T08:12:01;1.70;;;0.80;;
50745;SDS011;36711;51.972;21.204;2022-07-24T08:14:29;2.90;;;1.00;;
50745;SDS011;36711;51.972;21.204;2022-07-24T08:16:57;1.20;;;0.80;;
50745;SDS011;36711;51.972;21.204;2022-07-24T08:19:25;1.10;;;0.80;;
50745;SDS011;36711;51.972;21.204;2022-07-24T08:21:53;2.60;;;0.90;;
50745;SDS011;36711;51.972;21.204;2022-07-24T08:24:21;1.00;;;0.80;;
50745;SDS011;36711;51.972;21.204;2022-07-24T08:26:49;0.80;;;0.80;;
50745;SDS011;36711;51.972;21.204;2022-07-24T08:29:17;1.60;;;0.70;;
50745;SDS011;36711;51.972;21.204;2022-07-24T08:31:45;3.00;;;0.70;;
50745;SDS011;36711;51.972;21.204;2022-07-24T08:34:12;1.40;;;0.70;;
50745;SDS011;36711;51.972;21.204;2022-07-24T08:36:40;1.10;;;0.60;;
50745;SDS011;36711;51.972;21.204;2022-07-24T08:39:08;2.50;;;0.60;;
50745;SDS011;36711;51.972;21.204;2022-07-24T08:41:37;1.50;;;0.60;;
50745;SDS011;36711;51.972;21.204;2022-07-24T08:44:05;1.60;;;0.40;;
50745;SDS011;36711;51.972;21.204;2022-07-24T08:46:36;2.10;;;0.60;;
50745;SDS011;36711;51.972;21.204;2022-07-24T08:49:11;1.40;;;0.60;;
50745;SDS011;36711;51.972;21.204;2022-07-24T08:51:41;2.40;;;0.50;;
50745;SDS011;36711;51.972;21.204;2022-07-24T08:54:11;5.00;;;0.70;;
50745;SDS011;36711;51.972;21.204;2022-07-24T08:56:39;2.30;;;0.50;;
50745;SDS011;36711;51.972;21.204;2022-07-24T08:59:18;1.40;;;0.60;;
50745;SDS011;36711;51.972;21.204;2022-07-24T09:01:52;1.90;;;0.80;;
50745;SDS011;36711;51.972;21.204;2022-07-24T09:04:34;2.00;;;0.50;;
50745;SDS011;36711;51.972;21.204;2022-07-24T09:07:04;1.40;;;0.70;;
50745;SDS011;36711;51.972;21.204;2022-07-24T09:09:39;2.30;;;0.60;;
50745;SDS011;36711;51.972;21.204;2022-07-24T09:12:11;1.30;;;0.50;;
50745;SDS011;36711;51.972;21.204;2022-07-24T09:14:44;1.10;;;0.60;;
50745;SDS011;36711;51.972;21.204;2022-07-24T09:17:16;1.20;;;0.50;;
50745;SDS011;36711;51.972;21.204;2022-07-24T09:25:05;1.30;;;0.50;;
50745;SDS011;36711;51.972;21.204;2022-07-24T09:27:45;1.60;;;0.60;;
50745;SDS011;36711;51.972;21.204;2022-07-24T09:30:21;4.00;;;0.60;;
50745;SDS011;36711;51.972;21.204;2022-07-24T09:33:07;0.60;;;0.50;;
50745;SDS011;36711;51.972;21.204;2022-07-24T09:35:39;1.90;;;0.70;;
50745;SDS011;36711;51.972;21.204;2022-07-24T09:38:08;1.70;;;0.60;;
50745;SDS011;36711;51.972;21.204;2022-07-24T09:40:39;1.80;;;0.70;;
50745;SDS011;36711;51.972;21.204;2022-07-24T09:43:12;1.60;;;0.60;;
50745;SDS011;36711;51.972;21.204;2022-07-24T09:45:53;0.70;;;0.70;;
50745;SDS011;36711;51.972;21.204;2022-07-24T09:48:32;0.60;;;0.60;;
50745;SDS011;36711;51.972;21.204;2022-07-24T09:51:23;1.20;;;0.80;;
50745;SDS011;36711;51.972;21.204;2022-07-24T09:53:54;2.20;;;0.70;;
50745;SDS011;36711;51.972;21.204;2022-07-24T09:56:23;3.80;;;0.80;;
50745;SDS011;36711;51.972;21.204;2022-07-24T09:58:53;1.40;;;0.70;;
50745;SDS011;36711;51.972;21.204;2022-07-24T10:01:24;4.00;;;0.80;;
50745;SDS011;36711;51.972;21.204;2022-07-24T10:03:54;1.10;;;0.70;;
50745;SDS011;36711;51.972;21.204;2022-07-24T10:06:25;1.10;;;0.50;;
50745;SDS011;36711;51.972;21.204;2022-07-24T10:08:54;3.70;;;0.80;;
50745;SDS011;36711;51.972;21.204;2022-07-24T10:11:23;1.10;;;0.70;;
50745;SDS011;36711;51.972;21.204;2022-07-24T10:13:51;1.30;;;0.50;;
50745;SDS011;36711;51.972;21.204;2022-07-24T10:16:25;3.00;;;0.60;;
50745;SDS011;36711;51.972;21.204;2022-07-24T10:19:00;2.40;;;0.80;;
50745;SDS011;36711;51.972;21.204;2022-07-24T10:21:32;1.50;;;0.80;;
50745;SDS011;36711;51.972;21.204;2022-07-24T10:24:11;2.00;;;0.90;;
50745;SDS011;36711;51.972;21.204;2022-07-24T10:26:50;1.60;;;0.70;;
50745;SDS011;36711;51.972;21.204;2022-07-24T10:29:21;1.10;;;0.70;;
50745;SDS011;36711;51.972;21.204;2022-07-24T10:31:54;2.60;;;0.80;;
50745;SDS011;36711;51.972;21.204;2022-07-24T10:40:12;3.10;;;1.10;;
50745;SDS011;36711;51.972;21.204;2022-07-24T10:50:59;1.70;;;0.80;;
50745;SDS011;36711;51.972;21.204;2022-07-24T10:59:12;0.90;;;0.70;;
50745;SDS011;36711;51.972;21.204;2022-07-24T11:01:41;1.20;;;0.70;;
50745;SDS011;36711;51.972;21.204;2022-07-24T11:06:46;2.30;;;0.60;;
50745;SDS011;36711;51.972;21.204;2022-07-24T11:09:18;1.20;;;0.60;;
50745;SDS011;36711;51.972;21.204;2022-07-24T11:14:22;1.10;;;0.70;;
50745;SDS011;36711;51.972;21.204;2022-07-24T11:16:51;0.70;;;0.60;;
50745;SDS011;36711;51.972;21.204;2022-07-24T11:21:48;0.70;;;0.60;;
50745;SDS011;36711;51.972;21.204;2022-07-24T11:24:28;1.00;;;0.60;;
50745;SDS011;36711;51.972;21.204;2022-07-24T11:26:58;1.50;;;0.70;;
50745;SDS011;36711;51.972;21.204;2022-07-24T11:29:31;0.80;;;0.70;;
50745;SDS011;36711;51.972;21.204;2022-07-24T11:32:06;0.70;;;0.70;;
50745;SDS011;36711;51.972;21.204;2022-07-24T11:34:45;0.80;;;0.80;;
50745;SDS011;36711;51.972;21.204;2022-07-24T11:37:14;1.80;;;0.80;;
50745;SDS011;36711;51.972;21.204;2022-07-24T11:39:43;1.10;;;0.70;;
50745;SDS011;36711;51.972;21.204;2022-07-24T11:42:13;23.30;;;2.00;;
50745;SDS011;36711;51.972;21.204;2022-07-24T11:44:43;1.30;;;0.50;;
50745;SDS011;36711;51.972;21.204;2022-07-24T11:47:14;2.40;;;0.60;;
50745;SDS011;36711;51.972;21.204;2022-07-24T11:49:45;0.90;;;0.90;;
50745;SDS011;36711;51.972;21.204;2022-07-24T11:52:35;1.30;;;0.80;;
50745;SDS011;36711;51.972;21.204;2022-07-24T11:55:15;0.90;;;0.70;;
50745;SDS011;36711;51.972;21.204;2022-07-24T11:57:46;0.80;;;0.80;;
50745;SDS011;36711;51.972;21.204;2022-07-24T12:00:38;3.20;;;1.10;;
50745;SDS011;36711;51.972;21.204;2022-07-24T12:03:08;0.90;;;0.80;;
50745;SDS011;36711;51.972;21.204;2022-07-24T12:05:38;1.80;;;0.90;;
50745;SDS011;36711;51.972;21.204;2022-07-24T12:08:22;1.50;;;1.00;;
50745;SDS011;36711;51.972;21.204;2022-07-24T12:10:55;1.00;;;0.90;;
50745;SDS011;36711;51.972;21.204;2022-07-24T12:13:24;1.40;;;1.00;;
50745;SDS011;36711;51.972;21.204;2022-07-24T12:15:52;1.10;;;1.00;;
50745;SDS011;36711;51.972;21.204;2022-07-24T12:18:20;1.40;;;1.10;;
50745;SDS011;36711;51.972;21.204;2022-07-24T12:20:57;2.10;;;1.10;;
50745;SDS011;36711;51.972;21.204;2022-07-24T12:23:27;0.70;;;0.70;;
50745;SDS011;36711;51.972;21.204;2022-07-24T12:25:56;0.80;;;0.80;;
50745;SDS011;36711;51.972;21.204;2022-07-24T12:28:26;1.10;;;0.80;;
50745;SDS011;36711;51.972;21.204;2022-07-24T12:30:54;0.70;;;0.70;;
50745;SDS011;36711;51.972;21.204;2022-07-24T12:33:26;2.30;;;0.80;;
50745;SDS011;36711;51.972;21.204;2022-07-24T12:36:01;2.30;;;0.90;;
50745;SDS011;36711;51.972;21.204;2022-07-24T12:41:17;0.70;;;0.60;;
50745;SDS011;36711;51.972;21.204;2022-07-24T12:46:18;0.90;;;0.80;;
50745;SDS011;36711;51.972;21.204;2022-07-24T12:51:51;1.30;;;0.70;;
50745;SDS011;36711;51.972;21.204;2022-07-24T12:54:21;0.60;;;0.60;;
50745;SDS011;36711;51.972;21.204;2022-07-24T12:56:51;0.90;;;0.70;;
50745;SDS011;36711;51.972;21.204;2022-07-24T12:59:42;1.50;;;1.00;;
50745;SDS011;36711;51.972;21.204;2022-07-24T13:04:45;4.50;;;1.10;;
50745;SDS011;36711;51.972;21.204;2022-07-24T13:07:15;1.00;;;0.80;;
50745;SDS011;36711;51.972;21.204;2022-07-24T13:09:45;2.40;;;0.80;;
50745;SDS011;36711;51.972;21.204;2022-07-24T13:12:13;0.90;;;0.80;;
50745;SDS011;36711;51.972;21.204;2022-07-24T13:14:41;2.10;;;0.90;;
50745;SDS011;36711;51.972;21.204;2022-07-24T13:17:10;4.10;;;0.90;;
50745;SDS011;36711;51.972;21.204;2022-07-24T13:19:42;1.60;;;1.20;;
50745;SDS011;36711;51.972;21.204;2022-07-24T13:22:13;1.30;;;1.20;;
50745;SDS011;36711;51.972;21.204;2022-07-24T13:24:41;2.20;;;1.00;;
50745;SDS011;36711;51.972;21.204;2022-07-24T13:27:10;1.00;;;0.90;;
50745;SDS011;36711;51.972;21.204;2022-07-24T13:29:41;2.50;;;1.20;;
50745;SDS011;36711;51.972;21.204;2022-07-24T13:32:10;1.00;;;0.90;;
50745;SDS011;36711;51.972;21.204;2022-07-24T13:34:38;1.00;;;0.90;;
50745;SDS011;36711;51.972;21.204;2022-07-24T13:37:06;1.30;;;1.20;;
50745;SDS011;36711;51.972;21.204;2022-07-24T13:39:37;2.20;;;1.30;;
50745;SDS011;36711;51.972;21.204;2022-07-24T13:42:09;4.30;;;1.10;;
50745;SDS011;36711;51.972;21.204;2022-07-24T13:44:37;3.20;;;1.50;;
50745;SDS011;36711;51.972;21.204;2022-07-24T13:47:04;2.00;;;1.30;;
50745;SDS011;36711;51.972;21.204;2022-07-24T13:49:32;3.10;;;1.10;;
50745;SDS011;36711;51.972;21.204;2022-07-24T13:52:00;2.50;;;1.80;;
50745;SDS011;36711;51.972;21.204;2022-07-24T13:54:28;1.50;;;1.30;;
50745;SDS011;36711;51.972;21.204;2022-07-24T13:56:56;1.90;;;1.50;;
50745;SDS011;36711;51.972;21.204;2022-07-24T13:59:24;1.80;;;1.30;;
50745;SDS011;36711;51.972;21.204;2022-07-24T14:01:52;1.20;;;1.10;;
50745;SDS011;36711;51.972;21.204;2022-07-24T14:04:19;2.40;;;1.00;;
50745;SDS011;36711;51.972;21.204;2022-07-24T14:06:54;1.80;;;1.10;;
50745;SDS011;36711;51.972;21.204;2022-07-24T14:09:22;1.60;;;1.00;;
50745;SDS011;36711;51.972;21.204;2022-07-24T14:11:50;1.20;;;1.00;;
50745;SDS011;36711;51.972;21.204;2022-07-24T14:14:18;1.30;;;1.10;;
50745;SDS011;36711;51.972;21.204;2022-07-24T14:16:46;1.80;;;0.80;;
50745;SDS011;36711;51.972;21.204;2022-07-24T14:19:15;1.20;;;1.10;;
50745;SDS011;36711;51.972;21.204;2022-07-24T14:21:43;1.20;;;1.10;;
50745;SDS011;36711;51.972;21.204;2022-07-24T14:24:17;1.30;;;1.20;;
50745;SDS011;36711;51.972;21.204;2022-07-24T14:26:47;3.70;;;1.20;;
50745;SDS011;36711;51.972;21.204;2022-07-24T14:29:16;1.10;;;0.90;;
50745;SDS011;36711;51.972;21.204;2022-07-24T14:31:44;1.40;;;1.30;;
50745;SDS011;36711;51.972;21.204;2022-07-24T14:34:13;1.20;;;1.10;;
50745;SDS011;36711;51.972;21.204;2022-07-24T14:36:41;1.10;;;1.00;;
50745;SDS011;36711;51.972;21.204;2022-07-24T14:39:09;1.30;;;1.20;;
50745;SDS011;36711;51.972;21.204;2022-07-24T14:41:37;2.20;;;1.50;;
50745;SDS011;36711;51.972;21.204;2022-07-24T14:44:05;1.60;;;1.30;;
50745;SDS011;36711;51.972;21.204;2022-07-24T14:46:37;1.90;;;1.40;;
50745;SDS011;36711;51.972;21.204;2022-07-24T14:49:07;1.40;;;1.30;;
50745;SDS011;36711;51.972;21.204;2022-07-24T14:51:36;1.60;;;1.40;;
50745;SDS011;36711;51.972;21.204;2022-07-24T14:54:05;2.10;;;1.50;;
50745;SDS011;36711;51.972;21.204;2022-07-24T14:56:34;3.20;;;1.60;;
50745;SDS011;36711;51.972;21.204;2022-07-24T14:59:03;2.60;;;1.80;;
50745;SDS011;36711;51.972;21.204;2022-07-24T15:01:31;2.30;;;1.90;;
50745;SDS011;36711;51.972;21.204;2022-07-24T15:04:04;2.70;;;1.90;;
50745;SDS011;36711;51.972;21.204;2022-07-24T15:06:33;1.70;;;1.60;;
50745;SDS011;36711;51.972;21.204;2022-07-24T15:09:03;1.80;;;1.60;;
50745;SDS011;36711;51.972;21.204;2022-07-24T15:11:31;3.00;;;2.00;;
50745;SDS011;36711;51.972;21.204;2022-07-24T15:13:59;2.00;;;1.90;;
50745;SDS011;36711;51.972;21.204;2022-07-24T15:16:27;3.90;;;2.10;;
50745;SDS011;36711;51.972;21.204;2022-07-24T15:18:55;1.70;;;1.60;;
50745;SDS011;36711;51.972;21.204;2022-07-24T15:21:23;2.00;;;1.80;;
50745;SDS011;36711;51.972;21.204;2022-07-24T15:23:50;1.90;;;1.80;;
50745;SDS011;36711;51.972;21.204;2022-07-24T15:26:18;2.80;;;1.40;;
50745;SDS011;36711;51.972;21.204;2022-07-24T15:28:46;2.00;;;1.80;;